createdAt,value
2022-11-06T00:01:51.883Z,4.03
2022-11-06T00:04:19.577Z,4.35
2022-11-06T00:06:49.399Z,4.28
2022-11-06T00:09:19.555Z,4.28
2022-11-06T00:11:48.581Z,4.05
2022-11-06T00:14:16.906Z,3.83
2022-11-06T00:16:47.699Z,4.57
2022-11-06T00:19:15.675Z,4.47
2022-11-06T00:21:43.976Z,4.50
2022-11-06T00:24:13.618Z,4.00
2022-11-06T00:26:41.793Z,4.97
2022-11-06T00:29:13.704Z,4.25
2022-11-06T00:31:41.373Z,4.68
2022-11-06T00:34:10.995Z,4.70
2022-11-06T00:36:38.796Z,4.07
2022-11-06T00:39:06.572Z,4.45
2022-11-06T00:41:34.226Z,4.57
2022-11-06T00:44:03.108Z,4.88
2022-11-06T00:46:31.452Z,4.22
2022-11-06T00:48:59.370Z,4.35
2022-11-06T00:51:30.119Z,4.13
2022-11-06T00:53:59.744Z,3.38
2022-11-06T00:56:28.252Z,2.90
2022-11-06T00:58:56.603Z,4.53
2022-11-06T01:01:25.844Z,4.32
2022-11-06T01:03:55.360Z,4.25
2022-11-06T01:06:25.617Z,4.15
2022-11-06T01:08:55.276Z,3.88
2022-11-06T01:11:24.988Z,3.03
2022-11-06T01:13:55.051Z,4.45
2022-11-06T01:16:24.580Z,3.90
2022-11-06T01:18:53.383Z,4.78
2022-11-06T01:21:23.261Z,4.43
2022-11-06T01:23:55.836Z,3.95
2022-11-06T01:26:37.354Z,3.92
2022-11-06T01:29:07.659Z,4.28
2022-11-06T01:31:36.245Z,5.20
2022-11-06T01:34:04.692Z,4.45
2022-11-06T01:36:33.261Z,3.90
2022-11-06T01:39:07.362Z,3.28
2022-11-06T01:41:38.550Z,4.20
2022-11-06T01:44:09.745Z,4.40
2022-11-06T01:46:37.867Z,4.50
2022-11-06T01:49:13.763Z,4.40
2022-11-06T01:51:46.196Z,4.07
2022-11-06T01:54:16.144Z,3.67
2022-11-06T01:56:47.723Z,3.75
2022-11-06T01:59:19.511Z,3.78
2022-11-06T02:01:47.380Z,4.28
2022-11-06T02:04:19.501Z,4.05
2022-11-06T02:06:49.021Z,4.10
2022-11-06T02:09:19.154Z,3.70
2022-11-06T02:11:52.031Z,3.75
2022-11-06T02:14:28.455Z,3.92
2022-11-06T02:17:07.530Z,3.22
2022-11-06T02:19:54.085Z,3.95
2022-11-06T02:22:39.270Z,4.10
2022-11-06T02:25:16.635Z,3.15
2022-11-06T02:27:48.745Z,3.60
2022-11-06T02:30:18.768Z,3.40
2022-11-06T02:32:52.022Z,3.30
2022-11-06T02:35:25.469Z,3.65
2022-11-06T02:37:58.955Z,3.65
2022-11-06T02:40:33.447Z,3.25
2022-11-06T02:43:07.447Z,3.30
2022-11-06T02:45:40.448Z,3.25
2022-11-06T02:48:11.481Z,3.25
2022-11-06T02:50:43.541Z,2.22
2022-11-06T02:53:14.851Z,3.63
2022-11-06T02:55:47.203Z,3.45
2022-11-06T02:58:20.880Z,3.13
2022-11-06T03:00:54.707Z,3.50
2022-11-06T03:03:26.430Z,1.92
2022-11-06T03:05:58.658Z,2.95
2022-11-06T03:08:31.619Z,3.60
2022-11-06T03:11:07.580Z,3.90
2022-11-06T03:13:47.853Z,3.15
2022-11-06T03:16:28.783Z,3.22
2022-11-06T03:19:03.644Z,3.05
2022-11-06T03:24:09.412Z,3.08
2022-11-06T03:26:39.429Z,3.28
2022-11-06T03:29:13.964Z,2.85
2022-11-06T03:31:49.776Z,2.47
2022-11-06T03:34:24.203Z,2.83
2022-11-06T03:36:56.266Z,2.22
2022-11-06T03:39:29.648Z,2.92
2022-11-06T03:42:03.417Z,3.03
2022-11-06T03:44:35.737Z,3.20
2022-11-06T03:47:10.063Z,2.70
2022-11-06T03:49:41.767Z,3.53
2022-11-06T03:52:14.520Z,3.17
2022-11-06T03:54:45.425Z,3.65
2022-11-06T03:57:18.623Z,3.17
2022-11-06T03:59:51.385Z,2.70
2022-11-06T04:02:21.917Z,2.72
2022-11-06T04:04:54.673Z,2.50
2022-11-06T04:07:25.750Z,2.63
2022-11-06T04:10:15.686Z,2.65
2022-11-06T04:12:58.863Z,2.50
2022-11-06T04:15:31.878Z,2.45
2022-11-06T04:17:59.512Z,2.55
2022-11-06T04:20:56.220Z,3.10
2022-11-06T04:23:29.205Z,2.38
2022-11-06T04:26:22.687Z,2.70
2022-11-06T04:28:57.828Z,3.00
2022-11-06T04:31:37.537Z,2.38
2022-11-06T04:34:15.715Z,2.67
2022-11-06T04:36:47.057Z,2.72
2022-11-06T04:39:20.761Z,2.80
2022-11-06T04:41:58.311Z,2.38
2022-11-06T04:44:32.572Z,2.50
2022-11-06T04:47:05.546Z,2.00
2022-11-06T04:49:36.498Z,1.77
2022-11-06T04:52:07.623Z,2.30
2022-11-06T04:54:36.481Z,2.53
2022-11-06T04:57:04.697Z,2.13
2022-11-06T04:59:36.089Z,2.22
2022-11-06T05:02:05.543Z,2.42
2022-11-06T05:04:33.628Z,2.50
2022-11-06T05:07:01.309Z,2.40
2022-11-06T05:09:28.974Z,2.75
2022-11-06T05:11:56.628Z,2.50
2022-11-06T05:14:24.367Z,3.03
2022-11-06T05:16:51.970Z,2.15
2022-11-06T05:19:20.943Z,2.45
2022-11-06T05:22:06.284Z,2.60
2022-11-06T05:24:33.937Z,2.17
2022-11-06T05:27:01.565Z,1.50
2022-11-06T05:29:29.480Z,2.25
2022-11-06T05:31:57.096Z,2.25
2022-11-06T05:34:26.081Z,2.42
2022-11-06T05:36:53.683Z,2.35
2022-11-06T05:39:21.407Z,2.30
2022-11-06T05:41:49.003Z,2.60
2022-11-06T05:44:16.741Z,2.03
2022-11-06T05:46:49.296Z,2.38
2022-11-06T05:49:18.217Z,2.60
2022-11-06T05:51:47.415Z,2.90
2022-11-06T05:54:15.748Z,2.85
2022-11-06T05:56:43.372Z,2.35
2022-11-06T05:59:11.172Z,2.35
2022-11-06T06:01:38.920Z,1.98
2022-11-06T06:04:06.691Z,2.42
2022-11-06T06:06:34.941Z,2.55
2022-11-06T06:09:04.669Z,2.70
2022-11-06T06:11:32.275Z,2.78
2022-11-06T06:14:01.245Z,2.33
2022-11-06T06:16:29.182Z,2.90
2022-11-06T06:18:56.837Z,2.38
2022-11-06T06:21:24.434Z,2.28
2022-11-06T06:23:52.087Z,3.38
2022-11-06T06:26:21.045Z,2.75
2022-11-06T06:28:49.227Z,2.85
2022-11-06T06:31:17.096Z,3.17
2022-11-06T06:33:44.772Z,2.85
2022-11-06T06:36:12.407Z,2.47
2022-11-06T06:38:40.096Z,2.85
2022-11-06T06:41:09.594Z,2.85
2022-11-06T06:43:38.689Z,2.60
2022-11-06T06:46:07.932Z,2.88
2022-11-06T06:48:36.229Z,2.78
2022-11-06T06:51:04.804Z,2.95
2022-11-06T06:53:32.586Z,3.22
2022-11-06T06:56:00.936Z,2.97
2022-11-06T06:58:29.111Z,3.22
2022-11-06T07:01:00.422Z,2.97
2022-11-06T07:03:28.085Z,2.75
2022-11-06T07:05:55.792Z,3.10
2022-11-06T07:08:23.417Z,3.35
2022-11-06T07:10:51.099Z,2.80
2022-11-06T07:13:18.705Z,3.22
2022-11-06T07:15:46.360Z,3.15
2022-11-06T07:18:15.752Z,3.03
2022-11-06T07:20:43.668Z,2.75
2022-11-06T07:23:11.285Z,3.40
2022-11-06T07:25:38.949Z,3.20
2022-11-06T07:28:08.407Z,3.15
2022-11-06T07:30:36.962Z,3.00
2022-11-06T07:33:05.995Z,3.13
2022-11-06T07:35:36.341Z,2.63
2022-11-06T07:38:05.900Z,2.95
2022-11-06T07:40:34.273Z,3.60
2022-11-06T07:43:06.329Z,2.65
2022-11-06T07:45:34.210Z,2.75
2022-11-06T07:48:02.140Z,2.80
2022-11-06T07:50:30.415Z,3.05
2022-11-06T07:53:02.248Z,2.65
2022-11-06T07:55:29.964Z,2.58
2022-11-06T07:57:59.240Z,2.38
2022-11-06T08:00:27.237Z,2.42
2022-11-06T08:05:22.481Z,2.53
2022-11-06T08:07:50.105Z,2.85
2022-11-06T08:10:19.376Z,2.72
2022-11-06T08:12:47.020Z,3.05
2022-11-06T08:15:14.756Z,2.58
2022-11-06T08:17:42.384Z,2.90
2022-11-06T08:20:10.991Z,2.92
2022-11-06T08:22:38.659Z,2.60
2022-11-06T08:25:07.428Z,2.20
2022-11-06T08:27:36.398Z,2.60
2022-11-06T08:30:04.800Z,2.50
2022-11-06T08:32:32.458Z,2.53
2022-11-06T08:35:00.052Z,2.72
2022-11-06T08:37:27.737Z,2.25
2022-11-06T08:39:55.596Z,2.70
2022-11-06T08:42:23.711Z,2.38
2022-11-06T08:44:52.747Z,2.40
2022-11-06T08:47:20.440Z,2.50
2022-11-06T08:49:48.049Z,2.33
2022-11-06T08:52:15.695Z,2.28
2022-11-06T08:54:43.332Z,2.55
2022-11-06T08:57:11.128Z,2.40
2022-11-06T08:59:38.747Z,2.08
2022-11-06T09:02:07.944Z,2.08
2022-11-06T09:04:41.061Z,1.80
2022-11-06T09:07:09.265Z,2.10
2022-11-06T09:09:36.919Z,2.15
2022-11-06T09:12:04.793Z,1.95
2022-11-06T09:14:34.419Z,2.05
2022-11-06T09:17:02.136Z,2.20
2022-11-06T09:19:31.142Z,1.95
2022-11-06T09:21:58.789Z,2.00
2022-11-06T09:24:49.606Z,2.03
2022-11-06T09:27:14.019Z,1.90
2022-11-06T09:29:43.938Z,2.00
2022-11-06T09:32:11.775Z,2.10
2022-11-06T09:34:40.771Z,2.00
2022-11-06T09:37:08.401Z,1.92
2022-11-06T09:39:36.085Z,1.50
2022-11-06T09:42:14.006Z,1.80
2022-11-06T09:44:57.793Z,1.80
2022-11-06T09:47:30.928Z,1.92
2022-11-06T09:50:00.137Z,2.00
2022-11-06T09:52:35.636Z,2.30
2022-11-06T09:55:06.887Z,1.60
2022-11-06T09:57:38.717Z,1.52
2022-11-06T10:00:07.838Z,1.85
2022-11-06T10:02:43.237Z,1.60
2022-11-06T10:05:24.125Z,2.28
2022-11-06T10:07:54.640Z,1.20
2022-11-06T10:10:25.865Z,1.80
2022-11-06T10:13:23.632Z,1.70
2022-11-06T10:15:59.206Z,1.70
2022-11-06T10:18:39.148Z,1.58
2022-11-06T10:21:11.797Z,1.48
2022-11-06T10:23:47.995Z,1.60
2022-11-06T10:26:18.383Z,1.52
2022-11-06T10:29:04.451Z,1.23
2022-11-06T10:31:43.678Z,1.38
2022-11-06T10:34:16.740Z,1.80
2022-11-06T10:36:51.493Z,1.50
2022-11-06T10:41:54.984Z,1.50
2022-11-06T10:44:26.392Z,1.77
2022-11-06T10:46:59.578Z,1.83
2022-11-06T10:49:36.599Z,2.00
2022-11-06T10:52:20.303Z,1.73
2022-11-06T10:55:00.449Z,1.70
2022-11-06T10:57:37.244Z,2.17
2022-11-06T11:00:05.984Z,1.73
2022-11-06T11:02:37.767Z,1.77
2022-11-06T11:05:14.373Z,1.92
2022-11-06T11:07:45.266Z,1.67
2022-11-06T11:10:28.801Z,1.20
2022-11-06T11:13:00.026Z,1.60
2022-11-06T11:15:32.410Z,1.83
2022-11-06T11:18:18.212Z,2.25
2022-11-06T11:20:47.404Z,1.60
2022-11-06T11:23:19.967Z,1.88
2022-11-06T11:25:49.481Z,2.15
2022-11-06T11:28:27.805Z,1.70
2022-11-06T11:30:58.996Z,1.98
2022-11-06T11:33:27.327Z,1.80
2022-11-06T11:35:55.552Z,1.80
2022-11-06T11:38:26.088Z,1.70
2022-11-06T11:41:07.840Z,1.45
2022-11-06T11:43:35.545Z,1.83
2022-11-06T11:46:05.451Z,1.50
2022-11-06T11:48:44.548Z,1.80
2022-11-06T11:51:25.684Z,1.40
2022-11-06T11:53:57.331Z,1.27
2022-11-06T11:56:50.104Z,1.08
2022-11-06T11:59:20.160Z,1.50
2022-11-06T12:01:49.411Z,1.45
2022-11-06T12:04:25.500Z,1.13
2022-11-06T12:07:03.040Z,1.33
2022-11-06T12:09:36.184Z,1.40
2022-11-06T12:12:03.843Z,1.60
2022-11-06T12:14:37.206Z,1.40
2022-11-06T12:17:10.850Z,1.60
2022-11-06T12:19:41.088Z,1.40
2022-11-06T12:22:16.497Z,1.88
2022-11-06T12:24:50.911Z,1.80
2022-11-06T12:27:22.626Z,1.42
2022-11-06T12:29:57.890Z,1.42
2022-11-06T12:32:36.101Z,1.45
2022-11-06T12:35:13.670Z,1.50
2022-11-06T12:37:50.294Z,1.40
2022-11-06T12:40:25.365Z,1.42
2022-11-06T12:43:14.478Z,1.67
2022-11-06T12:45:58.324Z,1.45
2022-11-06T12:48:50.006Z,1.08
2022-11-06T12:51:28.935Z,1.50
2022-11-06T12:54:14.895Z,1.60
2022-11-06T12:56:51.426Z,1.95
2022-11-06T12:59:32.875Z,1.27
2022-11-06T13:04:45.655Z,1.80
2022-11-06T13:07:31.207Z,1.70
2022-11-06T13:10:15.822Z,1.63
2022-11-06T13:12:56.035Z,1.30
2022-11-06T13:15:32.267Z,1.55
2022-11-06T13:18:09.942Z,1.83
2022-11-06T13:20:45.414Z,1.27
2022-11-06T13:23:21.539Z,1.67
2022-11-06T13:25:56.696Z,1.27
2022-11-06T13:28:31.245Z,1.20
2022-11-06T13:31:00.451Z,1.33
2022-11-06T13:33:31.322Z,1.08
2022-11-06T13:36:00.224Z,1.45
2022-11-06T13:38:30.603Z,1.40
2022-11-06T13:41:03.687Z,1.40
2022-11-06T13:43:39.060Z,1.73
2022-11-06T13:46:13.472Z,1.63
2022-11-06T13:48:50.638Z,1.42
2022-11-06T13:51:26.384Z,2.20
2022-11-06T13:54:01.950Z,1.50
2022-11-06T13:57:10.491Z,1.67
2022-11-06T14:02:40.749Z,1.73
2022-11-06T14:05:30.709Z,1.75
2022-11-06T14:08:02.643Z,2.75
2022-11-06T14:10:35.134Z,2.22
2022-11-06T14:13:03.284Z,2.05
2022-11-06T14:15:37.696Z,2.25
2022-11-06T14:18:06.643Z,1.65
2022-11-06T14:20:36.492Z,1.92
2022-11-06T14:23:41.292Z,1.67
2022-11-06T14:26:11.682Z,1.92
2022-11-06T14:28:40.692Z,1.77
2022-11-06T14:31:13.975Z,1.58
2022-11-06T14:34:03.620Z,1.60
2022-11-06T14:36:36.980Z,1.50
2022-11-06T14:39:10.255Z,1.25
2022-11-06T14:42:00.096Z,1.65
2022-11-06T14:44:48.960Z,1.80
2022-11-06T14:47:33.093Z,1.85
2022-11-06T14:50:05.266Z,1.60
2022-11-06T14:52:44.977Z,1.20
2022-11-06T14:55:27.226Z,1.48
2022-11-06T14:57:56.755Z,1.65
2022-11-06T15:00:43.407Z,1.63
2022-11-06T15:03:25.661Z,1.60
2022-11-06T15:05:58.143Z,1.58
2022-11-06T15:08:58.238Z,2.15
2022-11-06T15:11:57.925Z,1.52
2022-11-06T15:14:57.922Z,1.77
2022-11-06T15:17:29.640Z,1.70
2022-11-06T15:20:17.163Z,2.08
2022-11-06T15:22:50.900Z,1.60
2022-11-06T15:25:23.841Z,1.23
2022-11-06T15:28:05.589Z,2.00
2022-11-06T15:30:42.042Z,2.00
2022-11-06T15:33:16.137Z,2.03
2022-11-06T15:35:49.535Z,2.05
2022-11-06T15:38:20.908Z,1.95
2022-11-06T15:40:50.036Z,1.83
2022-11-06T15:43:28.444Z,2.40
2022-11-06T15:46:07.702Z,1.70
2022-11-06T15:48:35.957Z,2.47
2022-11-06T15:53:39.789Z,2.53
2022-11-06T15:56:10.289Z,1.73
2022-11-06T15:58:39.520Z,2.08
2022-11-06T16:01:08.891Z,2.10
2022-11-06T16:03:47.439Z,2.30
2022-11-06T16:06:16.774Z,2.20
2022-11-06T16:08:44.976Z,2.05
2022-11-06T16:13:43.540Z,1.88
2022-11-06T16:16:44.606Z,2.05
2022-11-06T16:19:28.164Z,2.35
2022-11-06T16:22:00.778Z,2.22
2022-11-06T16:24:32.124Z,2.35
2022-11-06T16:27:00.425Z,2.08
2022-11-06T16:29:29.939Z,2.10
2022-11-06T16:32:03.660Z,2.30
2022-11-06T16:34:37.493Z,2.15
2022-11-06T16:37:08.576Z,2.38
2022-11-06T16:39:49.292Z,2.80
2022-11-06T16:42:29.287Z,2.55
2022-11-06T16:45:26.952Z,2.45
2022-11-06T16:48:25.908Z,1.98
2022-11-06T16:50:56.391Z,1.65
2022-11-06T16:53:28.504Z,1.88
2022-11-06T16:56:00.363Z,2.03
2022-11-06T16:58:29.821Z,1.50
2022-11-06T17:01:03.152Z,2.55
2022-11-06T17:03:39.586Z,2.30
2022-11-06T17:06:08.272Z,2.47
2022-11-06T17:08:38.828Z,2.22
2022-11-06T17:11:21.486Z,2.10
2022-11-06T17:13:50.656Z,2.25
2022-11-06T17:16:20.377Z,2.50
2022-11-06T17:18:48.784Z,2.72
2022-11-06T17:21:18.624Z,1.98
2022-11-06T17:23:48.603Z,1.95
2022-11-06T17:26:19.938Z,2.67
2022-11-06T17:28:47.870Z,2.53
2022-11-06T17:31:18.708Z,1.77
2022-11-06T17:33:47.069Z,1.75
2022-11-06T17:36:18.679Z,2.03
2022-11-06T17:38:48.379Z,1.92
2022-11-06T17:41:29.721Z,1.58
2022-11-06T17:43:58.317Z,1.83
2022-11-06T17:46:27.821Z,2.10
2022-11-06T17:48:55.839Z,2.60
2022-11-06T17:51:41.717Z,2.42
2022-11-06T17:54:11.298Z,2.30
2022-11-06T17:56:39.472Z,2.22
2022-11-06T18:01:35.162Z,2.25
2022-11-06T18:04:02.925Z,2.38
2022-11-06T18:06:30.664Z,2.38
2022-11-06T18:08:58.677Z,2.75
2022-11-06T18:11:28.202Z,1.60
2022-11-06T18:13:57.420Z,2.38
2022-11-06T18:16:28.377Z,2.47
2022-11-06T18:18:56.484Z,2.50
2022-11-06T18:21:24.268Z,2.50
2022-11-06T18:23:52.224Z,2.28
2022-11-06T18:26:22.256Z,2.13
2022-11-06T18:28:51.712Z,2.20
2022-11-06T18:31:20.538Z,2.90
2022-11-06T18:33:48.729Z,2.50
2022-11-06T18:38:44.852Z,1.77
2022-11-06T18:41:14.471Z,2.63
2022-11-06T18:43:42.629Z,3.03
2022-11-06T18:46:13.697Z,2.13
2022-11-06T18:48:41.439Z,2.67
2022-11-06T18:51:10.579Z,2.17
2022-11-06T18:53:39.307Z,1.85
2022-11-06T18:56:10.173Z,3.22
2022-11-06T18:58:38.072Z,2.05
2022-11-06T19:01:06.921Z,2.65
2022-11-06T19:03:36.787Z,3.28
2022-11-06T19:06:05.766Z,2.97
2022-11-06T19:08:33.659Z,3.35
2022-11-06T19:11:03.984Z,3.05
2022-11-06T19:13:31.767Z,3.78
2022-11-06T19:16:00.142Z,3.55
2022-11-06T19:18:29.378Z,2.20
2022-11-06T19:20:58.647Z,3.17
2022-11-06T19:23:26.348Z,3.97
2022-11-06T19:26:10.346Z,3.35
2022-11-06T19:28:42.123Z,2.47
2022-11-06T19:33:37.780Z,3.40
2022-11-06T19:36:07.649Z,3.95
2022-11-06T19:38:35.446Z,3.42
2022-11-06T19:41:05.242Z,3.95
2022-11-06T19:43:38.155Z,3.33
2022-11-06T19:46:07.135Z,3.00
2022-11-06T19:48:35.833Z,3.42
2022-11-06T19:51:04.098Z,3.97
2022-11-06T19:53:33.102Z,4.45
2022-11-06T19:56:04.651Z,5.85
2022-11-06T19:58:32.471Z,4.63
2022-11-06T20:01:00.294Z,4.90
2022-11-06T20:03:28.024Z,3.70
2022-11-06T20:05:55.707Z,5.13
2022-11-06T20:08:23.429Z,4.90
2022-11-06T20:10:52.500Z,5.63
2022-11-06T20:13:20.184Z,5.72
2022-11-06T20:15:47.844Z,5.03
2022-11-06T20:18:15.494Z,5.25
2022-11-06T20:20:43.228Z,5.10
2022-11-06T20:23:11.239Z,6.13
2022-11-06T20:28:07.916Z,5.95
2022-11-06T20:30:35.648Z,5.18
2022-11-06T20:33:03.343Z,5.80
2022-11-06T20:35:31.031Z,5.57
2022-11-06T20:37:58.694Z,6.85
2022-11-06T20:40:31.666Z,5.72
2022-11-06T20:43:02.431Z,6.78
2022-11-06T20:45:36.954Z,4.55
2022-11-06T20:48:05.622Z,5.35
2022-11-06T20:50:33.591Z,7.05
2022-11-06T20:53:01.543Z,7.38
2022-11-06T20:55:29.187Z,6.07
2022-11-06T20:57:56.839Z,6.65
2022-11-06T21:00:24.528Z,7.03
2022-11-06T21:02:57.542Z,6.40
2022-11-06T21:05:28.244Z,5.55
2022-11-06T21:07:55.931Z,6.38
2022-11-06T21:10:23.700Z,5.63
2022-11-06T21:12:51.325Z,7.13
2022-11-06T21:15:19.063Z,4.82
2022-11-06T21:17:46.729Z,5.82
2022-11-06T21:20:22.428Z,7.15
2022-11-06T21:22:50.500Z,6.63
2022-11-06T21:25:18.360Z,6.65
2022-11-06T21:27:45.989Z,6.25
2022-11-06T21:30:14.053Z,5.93
2022-11-06T21:35:09.908Z,5.28
2022-11-06T21:37:39.963Z,3.60
2022-11-06T21:40:09.652Z,5.45
2022-11-06T21:42:37.372Z,5.97
2022-11-06T21:45:05.602Z,4.95
2022-11-06T21:47:33.203Z,5.20
2022-11-06T21:50:00.853Z,4.90
2022-11-06T21:52:45.933Z,5.45
2022-11-06T21:55:32.596Z,5.82
2022-11-06T21:58:02.356Z,5.60
2022-11-06T22:00:30.616Z,6.35
2022-11-06T22:02:58.348Z,5.15
2022-11-06T22:05:26.025Z,4.82
2022-11-06T22:07:53.620Z,5.05
2022-11-06T22:10:22.601Z,4.07
2022-11-06T22:12:51.521Z,5.57
2022-11-06T22:15:19.384Z,7.07
2022-11-06T22:17:47.051Z,5.18
2022-11-06T22:20:14.755Z,4.70
2022-11-06T22:22:42.411Z,5.32
2022-11-06T22:25:10.920Z,4.80
2022-11-06T22:27:41.185Z,4.78
2022-11-06T22:30:10.218Z,5.40
2022-11-06T22:32:37.868Z,4.05
2022-11-06T22:35:06.120Z,5.95
2022-11-06T22:37:33.791Z,4.45
2022-11-06T22:40:01.476Z,5.28
2022-11-06T22:42:29.110Z,5.97
2022-11-06T22:44:58.112Z,4.28
2022-11-06T22:47:25.997Z,5.35
2022-11-06T22:49:53.657Z,3.53
2022-11-06T22:52:21.305Z,5.68
2022-11-06T22:54:48.988Z,4.90
2022-11-06T22:57:16.608Z,5.38
2022-11-06T22:59:44.218Z,5.55
2022-11-06T23:02:13.272Z,4.32
2022-11-06T23:04:41.129Z,6.03
2022-11-06T23:07:08.769Z,5.57
2022-11-06T23:09:36.400Z,4.80
2022-11-06T23:12:04.217Z,6.75
2022-11-06T23:14:31.855Z,5.88
2022-11-06T23:17:00.635Z,5.20
2022-11-06T23:19:31.868Z,5.38
2022-11-06T23:22:17.423Z,5.22
2022-11-06T23:24:45.525Z,5.35
2022-11-06T23:29:41.005Z,4.75
2022-11-06T23:32:09.347Z,4.97
2022-11-06T23:34:38.374Z,5.57
2022-11-06T23:37:06.023Z,3.90
2022-11-06T23:39:33.769Z,3.70
2022-11-06T23:42:01.500Z,4.80
2022-11-06T23:44:45.692Z,4.97
2022-11-06T23:47:13.362Z,4.63
2022-11-06T23:49:42.385Z,4.18
2022-11-06T23:52:10.037Z,4.75
2022-11-06T23:54:37.686Z,3.85
2022-11-06T23:57:05.409Z,4.82
2022-11-06T23:59:33.062Z,4.90
